Apple Cup Yearling Classic - Race 5 Alturas CA

Station: Alturas CA - A Race

Distance: 351 Miles    

Release: 25-May-2017 06:00

Weather Release: Clear    Arrival: Partly Cloudy

Wind at Release: 3 NE     Wind at Arrival: 6 NNW

Temp at Release: 35°    Temp at Arrival: 71°

Lofts: 68

Birds: 114

Clocked: 82

Good Luck to Everyone!
Drops Pos Breeder Pigeon Name Color Sex Ent Arrival Speed To Win Eligible ABC
5000 1 Haylett Loft - PA 64226-AU16-ARPU BB H 1 13:14:41.63 1421.138 00:00:00 Yes
7300 2 Lazy A C Loft - IN 0614-AU16-INDY BB H 1 13:14:44.33 1420.991 00:00:03 Yes
3000 3 Nanez Family Lofts - WI 44159-AU16-AA Grandson IRON CLAD PIED H 1 13:14:48.44 1420.767 00:00:07 Yes
3500 4 Tres Coronas Loft - CA 3388-AU16-SANT Appetite For Speed BRON H 1 13:14:50.38 1420.662 00:00:09 Yes
1000 5 Crooked Arrow Loft - IA 6887-AU16-NYKA BC H 1 13:15:17.20 1419.203 00:00:36 Yes
742 6 Floridian Loft - FL 2539-AU16-SCHE DEN 39 BB H 1 13:33:51.60 1361.125 00:19:10 Yes
3242 7 Kim Wong - VT 20923-AU16-ARPU BC H 1 13:34:28.53 1359.281 00:19:47 Yes
1679 8 Sugar Land Farms - OR 0520-AU16-UVI BB H 1 13:34:30.25 1359.195 00:19:49 Yes
1679 9 Blue Bucket Stampede - OR 6237-AU16-CORP 3021x5271 BC H 1 13:36:43.81 1352.571 00:22:02 Yes
742 10 Vandenbossche Loft - ME 6009-IF16-CMP Buster/7074 BB H 1 13:36:46.93 1352.417 00:22:05 Yes
11 Kastle Loft - KY 1646-AU16-KASL Kastle Prizzy BB H 1 13:36:49.10 1352.310 00:22:07 Yes
12 Bar S - UT 2200-AU16-OGN BC H 1 13:36:49.51 1352.290 00:22:08 Yes
13 Bob Bostwick - CA 0662-AU16-COCO BB H 1 13:37:08.38 1351.359 00:22:27 Yes
14 J H C - AL 45687-AU16-ARPU BB H 1 13:37:08.75 1351.341 00:22:27 Yes
5000 15 Ganus Family Loft - IN 0626-AU16-GFL BB H 1 13:38:52.36 1346.256 00:24:11 Yes
16 Racing Pigeon Mall - WA 0636-AU16-RPM DC H 1 13:40:20.08 1341.980 00:25:38 Yes
17 Greek Connection - SC 0070-AU16-GREK 3395x220 BB H 1 13:40:51.89 1340.436 00:26:10 Yes
18 Igor & Sons Loft - OR 10467-AU16-HOOD Turchinov BC H 1 13:42:37.79 1335.322 00:27:56 Yes
19 Floridian Loft - FL 2591-AU16-SCHE DEN 91 BC H 2 13:42:38.16 1335.305 00:27:57 Yes
937 20 Fl Lin Loft - FL 77779-AU16-ARPU PIED H 1 13:42:40.00 1335.216 00:27:58 Yes
21 Mels Loft - NY 0065-AU16-MTFL SON OF VOSSE BB H 1 13:42:45.88 1334.933 00:28:04 Yes
22 Greek Connection - SC 0071-AU16-GREK 3395x220 BB H 2 13:42:49.52 1334.758 00:28:08 Yes
23 Little Reata Loft - TX 16172-AU16-JETT BB H 1 13:42:57.53 1334.374 00:28:16 Yes
24 Applis Loft - MO 14332-AU16-AA Let Me Fly BB H 1 13:42:57.85 1334.358 00:28:16 Yes
1500 25 Lazy A C Loft - IN 0611-AU16-INDY BB H 2 13:43:09.83 1333.783 00:28:28 Yes
8030 26 Nanez Family Lofts - WI 6768-AU16-NFL Iron-Clad x Clockwork Blu BB H 2 13:44:37.49 1329.589 00:29:56 Yes
937 27 Fassio/Royer Team - UT 6272-AU16-SLI BC H 1 13:44:46.28 1329.170 00:30:05 Yes
28 Nanez Family Lofts - WI 6770-AU16-NFL Son Ironclad-dau.Constans BC H 3 13:47:49.39 1320.499 00:33:08 Yes
29 Western Loft - CA 1578-AU16-SFR MAGAYON BBWF H 1 13:54:55.30 1300.762 00:40:14 Yes
30 John Mc Cullough - NM 0563-AU16-NMRP BC H 1 13:55:09.60 1300.109 00:40:28 Yes
31 Crooked Arrow Loft - IA 6770-AU16-NYKA BC H 2 13:55:50.50 1298.247 00:41:09 Yes
32 Nanez Family Lofts - WI 44187-AU16-AA GRANDCHILD IRON CLAD BB H 4 13:59:25.73 1288.533 00:44:44 Yes
33 Greek Connection - SC 0285-AU16-GREK 205xCHARL BC H 3 14:00:22.28 1286.005 00:45:41 Yes
10000 34 Bird Dog Syndicate 2 - CA 0017-AU16-BURG BC H 1 14:03:12.65 1278.448 00:48:31 Yes
35 A-Lin Loft - ME 41989-AU16-AA BC H 1 14:03:19.64 1278.140 00:48:38 Yes
36 David Clausing - FL 0140-IF16-CLAU BB H 1 14:03:21.67 1278.051 00:48:40 Yes
37 Floridian Loft - FL 2573-AU16-SCHE DEN 73 BB H 3 14:03:25.35 1277.888 00:48:44 Yes
7500 38 Jing X Zheng - WA 6692-AU16-SWWR BBWF H 1 14:03:27.28 1277.803 00:48:46 Yes
39 Nanez Family Lofts - WI 6618-AU16-NFL RIK COOLS - DARK HORSE DC H 5 14:06:01.32 1271.054 00:51:20 Yes
40 Jones Boys - UT 7370-AU16-SLI BB H 1 14:06:07.19 1270.798 00:51:26 Yes
41 Cactus Lofts - BC 0924-AU16-AONE BC H 1 14:06:08.76 1270.729 00:51:27 Yes
937 42 Flyhome Loft - CA 18460-AU16-JEDD BC H 1 14:06:09.54 1270.695 00:51:28 Yes
43 Val & Bill - BC 1612-CU16-WCW BC H 1 14:06:54.42 1268.743 00:52:13 Yes
44 Dream Union - DC 16178-IF16-GUO BC H 1 14:28:44.61 1214.286 01:14:03 Yes
45 Ramon Guerrero & Refujio Martinez - WA 0389-AU16-SKI BC H 1 14:43:27.92 1180.135 01:28:46 Yes
46 Kwan Loft - CA 0698-AU16-KWAN DCWF H 1 14:51:59.48 1161.222 01:37:18 Yes
47 King Rps Loft - CA 2597-AU16-SFR {{{ CLIFFJUMPER }}} BC H 1 15:26:12.72 1091.040 02:11:31 Yes
1345 48 Roy Kinser - VA 23579-AU16-FOYS BBWF H 1 15:26:14.94 1090.969 02:11:33 Yes
49 Dream Team - VT 6995-AU16-ARPU 1304x3658 BB H 1 15:30:29.18 1082.866 02:15:48 Yes
50 Lins Loft - WA 0476-AU16-CBF BB H 1 15:34:50.94 1074.647 02:20:09 Yes
51 A-Lin Loft - ME 45106-AU16-AA BB H 2 15:43:19.70 1059.026 02:28:38 Yes
52 Floridian Loft - FL 2564-AU16-SCHE DEN 64 BB H 4 16:21:14.44 994.397 03:06:33 Yes
53 Flyhome Loft - CA 18456-AU16-JEDD BC H 2 16:21:17.74 994.309 03:06:36 Yes
54 Woodland Loft - NY 0004-IF16-WOOD BC H 1 16:21:24.19 994.137 03:06:43 Yes
55 Baldwin / Tilson - NC 6376-AU16-TENT BB H 1 16:47:11.66 954.520 03:32:30 Yes
56 John Gutierrez - NM 25798-AU16-FOYS BC H 1 17:05:27.07 928.333 03:50:45 Yes
57 David Clausing - FL 0122-IF16-CLAU BB H 2 17:24:10.77 902.921 04:09:29 Yes
58 Val & Bill - BC 1706-CU16-WCW BB H 2 17:25:46.37 900.823 04:11:05 Yes
59 Kim Wong - VT 1189-AU16-CVR BCWF H 2 17:48:17.82 872.177 04:33:36 Yes
60 Ganus Family Loft - IN 0666-AU16-GFL BB H 2 18:11:50.17 844.123 04:57:09 Yes
61 Floridian Loft - FL 2590-AU16-SCHE DEN 90 BC H 5 18:14:31.30 841.037 04:59:50 Yes
62 Greek Connection - SC 0276-AU16-GREK 699x376 BBPD H 4 19:19:44.63 772.447 06:05:03 Yes
63 Kwan Loft - CA 0686-AU16-KWAN RB H 2 19:26:14.18 766.227 06:11:33 Yes
64 Dream Team - VT 6934-AU16-ARPU USA85 x dv1000 BC H 2 19:51:55.49 742.567 06:37:14 Yes
65 Fleet Washington - DC 0377-AU16-FFR BB H 1 19:58:35.86 736.658 06:43:54 Yes
66 Ed Kehl - UT 0306-AU16-WFA BC H 1 2017-05-26 06:20:54.29 610.492 09:37:13 Yes
67 Dream Team - VT 3487-IF16-MH BC H 3 2017-05-26 06:49:23.72 593.774 10:05:42 Yes
68 Lazy A C Loft - IN 0618-AU16-INDY BC H 3 2017-05-26 08:29:54.22 541.466 11:46:13 Yes
69 Yo Yo Spetz - CA 1605-AU16-JEDD On The 3rd Day BBWF H 1 2017-05-26 08:36:45.89 538.229 11:53:04 Yes
70 Aimrude Syndicate - CA 0771-AU16-FMT 08010233 BB H 1 2017-05-26 08:48:07.55 532.953 12:04:26 Yes
71 Bar S - UT 2105-AU16-OGN BB H 2 2017-05-26 08:55:18.44 529.672 12:11:37 Yes
72 Western Loft - CA 0340-AU16-HAY BC H 2 2017-05-26 09:47:43.27 506.892 13:04:02 Yes
73 Little Reata Loft - TX 16230-AU16-JETT BC H 2 2017-05-26 11:34:31.47 466.049 14:50:50 Yes
74 Ken Easley & Son Racing - NM 4461-AU16-EASL Jolly Roger BBWF C 1 2017-05-26 13:10:45.76 434.503 16:27:04 Yes
75 Paine-Rose - CA 0146-AU16-GSF BB H 1 2017-05-26 16:48:48.54 376.727 20:05:07 Yes
76 Dream Loft-Silvercreek - MI 41006-AU16-AA BB H 1 2017-05-26 19:32:46.39 342.482 22:49:05 Yes
77 Igor & Sons Loft - OR 10444-AU16-MTHD Poroshenko BB H 2 2017-05-27 08:44:36.57 287.516 28:33:55 Yes
78 Ganus Family Loft - IN 0669-AU16-GFL BB H 3 2017-05-27 09:09:45.89 284.189 28:59:04 Yes
79 Crooked Arrow Loft - IA 1404-AU16-GNEO BCWF H 3 2017-05-28 08:02:48.52 199.225 44:26:07 Yes
80 Donald Johnson - MA 3555-AU16-FOYS BB H 1 2017-05-28 09:59:07.28 192.023 46:22:25 Yes
81 Western Loft - CA 0341-AU16-CHUI BB H 3 2017-05-29 10:29:40.08 131.784 70:52:59 Yes
82 Exclusive Energy Racing - CA 32607-AU16-JEDD BB H 1 2017-05-31 07:12:06.06 83.820 115:35:2 Yes
Ken Easley & Son Racing - NM 4513-AU16-EASL Revelation BB C 00:00:00.00 0.000 Yes
Crooked Arrow Loft - IA 6886-AU16-NYKA BC H 00:00:00.00 0.000 Yes
Spring Break 300 - UT 9435-AU16-AA BB H 00:00:00.00 0.000 Yes
Fassio/Royer Team - UT 6376-AU16-SLI BB H 00:00:00.00 0.000 Yes
Ojibwe Loft - OK 64625-AU16-ARPU BB H 00:00:00.00 0.000 Yes
A-Lin Loft - ME 36361-AU16-AA BC H 00:00:00.00 0.000 Yes
Fl Lin Loft - FL 4376-AU16-ARPU BC H 00:00:00.00 0.000 Yes
Cal-Tex Loft - CA 2767-AU16-MTZ Repeat Shot BC H 00:00:00.00 0.000 Yes
Cactus Lofts - BC 0925-AU16-AONE BB H 00:00:00.00 0.000 Yes
Mc Cormick Loft - CA 0752-AU16-WEF BLK H 00:00:00.00 0.000 Yes
Lazy A C Loft - IN 0613-AU16-INDY BB H 00:00:00.00 0.000 Yes
Lazy A C Loft - IN 0563-AU16-INDY BB H 00:00:00.00 0.000 Yes
Lulus Loft - CA 0419-AU16-SD 7748 BB H 00:00:00.00 0.000 Yes
Yo Yo Spetz - CA 0238-AU16-VIP BB H 00:00:00.00 0.000 Yes
Bynum Family Lofts - TX 0160-AU16-BFL BB H 00:00:00.00 0.000 Yes
Huan Qiu Zhang - NC 0146-IF16-JNC BC H 00:00:00.00 0.000 Yes
Greek Connection - SC 0085-AU16-GREK 528x527 BBWF H 00:00:00.00 0.000 Yes
Daehn/Miele - FL 0045-AU16-NWFL BB H 00:00:00.00 0.000 Yes

There are 114 bird records

Note: These Race Results are unofficial and subject to change until verified by the Race Committee and declared final.


Click for forecast!